createdAt,value
2022-08-26T00:24:18.124Z,-58
2022-08-26T00:54:23.568Z,-56
2022-08-26T01:24:27.595Z,-57
2022-08-26T01:54:35.136Z,-57
2022-08-26T02:24:44.390Z,-59
2022-08-26T02:54:53.261Z,-60
2022-08-26T03:25:00.301Z,-58
2022-08-26T03:55:07.175Z,-56
2022-08-26T04:25:13.019Z,-54
2022-08-26T04:55:15.009Z,-52
2022-08-26T05:25:20.234Z,-53
2022-08-26T05:55:21.105Z,-54
2022-08-26T06:25:28.565Z,-54
2022-08-26T06:55:33.765Z,-54
2022-08-26T07:25:41.825Z,-55
2022-08-26T07:55:49.731Z,-61
2022-08-26T08:25:58.823Z,-59
2022-08-26T08:56:07.891Z,-62
2022-08-26T09:26:15.957Z,-63
2022-08-26T09:56:24.488Z,-62
2022-08-26T10:26:25.448Z,-64
2022-08-26T10:56:34.549Z,-62
2022-08-26T11:26:38.233Z,-66
2022-08-26T11:37:35.542Z,-63
2022-08-26T12:07:46.641Z,-63
2022-08-26T12:07:54.980Z,-63
2022-08-26T12:08:06.098Z,-65
2022-08-26T12:08:15.686Z,-64
2022-08-26T12:08:27.652Z,-66
2022-08-26T12:08:36.981Z,-65
2022-08-26T12:39:39.828Z,-66
2022-08-26T13:09:47.702Z,-64
2022-08-26T13:39:56.455Z,-60
2022-08-26T14:10:05.103Z,-59
2022-08-26T14:40:13.682Z,-60
2022-08-26T15:10:14.075Z,-62
2022-08-26T15:40:17.416Z,-60
2022-08-26T16:10:19.600Z,-59
2022-08-26T16:40:20.693Z,-61
2022-08-26T17:10:26.815Z,-60
2022-08-26T17:40:29.362Z,-62
2022-08-26T18:10:39.361Z,-58
2022-08-26T18:40:40.539Z,-58
2022-08-26T19:10:46.344Z,-59
2022-08-26T19:40:51.827Z,-59
2022-08-26T20:10:55.441Z,-59
2022-08-26T20:41:04.643Z,-59
2022-08-26T21:11:07.909Z,-59
2022-08-26T21:41:09.330Z,-59
2022-08-26T22:11:18.003Z,-58
2022-08-26T22:41:18.853Z,-57
2022-08-26T23:11:22.033Z,-58
2022-08-26T23:41:31.878Z,-58
